SPNSK EPKK-EPKK
Flight info
| Callsign | SPNSK |
|---|---|
| Flight time | N/A |
| Altitude | 1500 |
| Route | EPKK DCT EPKK |
| Aircraft | AN2/L-SFG/C |
Departure
| Time | 2026-05-01 15:30 |
|---|---|
| Airport | Kraków John Paul II International Airport (EPKK) |
Arrival
| Time | N/A |
|---|---|
| Airport | Kraków John Paul II International Airport (EPKK) |
| Time | Latitude | Longitude | Altitude | Speed | Heading |
|---|---|---|---|---|---|
| 2026-05-01 15:20 | 50.07704 | 19.80161 | 788 ft | 0 kts | 348° |
| 2026-05-01 15:24 | 50.07741 | 19.80144 | 788 ft | 11 kts | 321° |
| 2026-05-01 15:25 | 50.07738 | 19.80051 | 788 ft | 15 kts | 259° |
| 2026-05-01 15:25 | 50.07715 | 19.79875 | 788 ft | 17 kts | 260° |
| 2026-05-01 15:25 | 50.07689 | 19.79697 | 788 ft | 17 kts | 259° |
| 2026-05-01 15:25 | 50.07663 | 19.79506 | 788 ft | 19 kts | 259° |
| 2026-05-01 15:26 | 50.07635 | 19.79302 | 788 ft | 19 kts | 258° |
| 2026-05-01 15:26 | 50.07605 | 19.79096 | 788 ft | 20 kts | 257° |
| 2026-05-01 15:26 | 50.07575 | 19.78881 | 788 ft | 23 kts | 256° |
| 2026-05-01 15:26 | 50.07542 | 19.78628 | 788 ft | 24 kts | 258° |
| 2026-05-01 15:27 | 50.07504 | 19.78375 | 788 ft | 24 kts | 258° |
| 2026-05-01 15:27 | 50.07471 | 19.78124 | 788 ft | 24 kts | 258° |
| 2026-05-01 15:27 | 50.07435 | 19.77878 | 788 ft | 23 kts | 258° |
| 2026-05-01 15:28 | 50.07367 | 19.77387 | 788 ft | 24 kts | 258° |
| 2026-05-01 15:28 | 50.07331 | 19.77129 | 788 ft | 25 kts | 259° |
| 2026-05-01 15:28 | 50.07335 | 19.76900 | 788 ft | 18 kts | 343° |
| 2026-05-01 15:29 | 50.07533 | 19.76847 | 795 ft | 16 kts | 32° |
| 2026-05-01 15:29 | 50.07594 | 19.77196 | 794 ft | 62 kts | 68° |
| 2026-05-01 15:29 | 50.07826 | 19.78824 | 1170 ft | 73 kts | 56° |
| 2026-05-01 15:30 | 50.08001 | 19.80634 | 1394 ft | 86 kts | 76° |
| 2026-05-01 15:31 | 50.09518 | 19.81798 | 1528 ft | 70 kts | 345° |
| 2026-05-01 15:31 | 50.10206 | 19.80863 | 1627 ft | 75 kts | 293° |
| 2026-05-01 15:32 | 50.10427 | 19.79268 | 1754 ft | 80 kts | 283° |
| 2026-05-01 15:32 | 50.10246 | 19.77550 | 1755 ft | 84 kts | 259° |
| 2026-05-01 15:33 | 50.09835 | 19.74754 | 1816 ft | 95 kts | 264° |
| 2026-05-01 15:34 | 50.09564 | 19.71991 | 2156 ft | 77 kts | 298° |